Portada
METAR-TAF:

METAR-TAF

Aeroports :

Madurai, Índia

latitud: 09-50-01N, longitud: 078-05-22E, altitud: 136 m

Observació

L'informe es va fer fa 41 minuts, a les 00:00 UTC
Vent calma
Temperatura 26°C
Humitat 84%
Pressió 1011 hPa
Visibilitat: 5000 m
Escasses núvols a una alçada de 2000 ft
boirina

METAR: VOMD 040000Z 00000KT 5000 BR FEW020 26/23 Q1011 NOSIG

Hora: 06:11 (00:41 UTC)

Pronòstic

L'informe es va fer fa 1 hora i 41 minuts, a les 23:00 UTC
Pronòstic vàlid del 04 a les 00 UTC al 05 a les 06 UTC
Vent 5 kt del Nord-Est
Visibilitat: 5000 m
Escasses núvols a una alçada de 2000 ft
calitja
Evolucionant progressivament
l' 04 a les 06 UTC al 04 a les 07 UTC
Visibilitat: 6000 m
Evolucionant progressivament
l' 04 a les 18 UTC al 04 a les 19 UTC
Visibilitat: 5000 m
calitja

TAF: VOMD 032300Z 0400/0506 05005KT 5000 HZ FEW020 BECMG 0406/0407 6000 BECMG 0418/0419 5000 HZ

Observacions i pronòstics meteorològics de més de 4000 aeroports (METAR i TAF).

Les estacions disponibles són els punts grocs i vermells al mapa.

Posi el ratolí al punt desitjat per veure el nom de l'estació.

Feu clic per veure les observacions i els pronòstics meteorològics.

Per canviar el mapa: feu clic els botons verds amb una creu de color negre per apropar; al botó verd amb un guió per allunyar la imatge; o en les fletxes verdes per a mapes adjacents.


METAR-TAF: